createdAt,value
2024-01-14T00:00:58.316Z,24.73
2024-01-14T00:03:25.203Z,22.00
2024-01-14T00:05:51.726Z,28.40
2024-01-14T00:08:18.407Z,28.93
2024-01-14T00:10:44.807Z,25.83
2024-01-14T00:13:11.593Z,27.63
2024-01-14T00:15:38.335Z,28.70
2024-01-14T00:18:05.181Z,25.57
2024-01-14T00:20:31.655Z,25.47
2024-01-14T00:22:58.126Z,25.00
2024-01-14T00:25:24.745Z,22.70
2024-01-14T00:27:51.210Z,25.63
2024-01-14T00:30:17.842Z,25.53
2024-01-14T00:32:44.377Z,24.73
2024-01-14T00:35:11.074Z,24.37
2024-01-14T00:37:37.576Z,25.37
2024-01-14T00:40:07.992Z,21.37
2024-01-14T00:42:34.560Z,23.63
2024-01-14T00:45:01.944Z,23.63
2024-01-14T00:47:31.393Z,24.37
2024-01-14T00:49:58.792Z,24.03
2024-01-14T00:52:25.228Z,25.27
2024-01-14T00:54:51.624Z,26.13
2024-01-14T00:57:19.044Z,24.60
2024-01-14T00:59:45.760Z,22.53
2024-01-14T01:02:13.275Z,22.60
2024-01-14T01:04:40.096Z,25.53
2024-01-14T01:07:07.612Z,28.43
2024-01-14T01:09:35.007Z,23.40
2024-01-14T01:12:01.895Z,22.53
2024-01-14T01:14:28.306Z,23.33
2024-01-14T01:16:54.822Z,27.30
2024-01-14T01:19:21.379Z,24.47
2024-01-14T01:21:48.682Z,20.50
2024-01-14T01:24:16.145Z,23.40
2024-01-14T01:26:42.599Z,20.40
2024-01-14T01:29:09.093Z,22.80
2024-01-14T01:31:45.439Z,21.60
2024-01-14T01:34:15.109Z,23.27
2024-01-14T01:36:41.712Z,20.20
2024-01-14T01:39:08.188Z,23.87
2024-01-14T01:41:34.619Z,21.07
2024-01-14T01:44:01.059Z,20.90
2024-01-14T01:46:27.472Z,21.37
2024-01-14T01:48:54.262Z,21.60
2024-01-14T01:51:21.143Z,19.97
2024-01-14T01:53:47.684Z,19.60
2024-01-14T01:56:14.685Z,21.10
2024-01-14T01:58:41.770Z,22.10
2024-01-14T02:01:08.539Z,21.77
2024-01-14T02:03:35.918Z,20.90
2024-01-14T02:06:04.050Z,21.47
2024-01-14T02:08:30.612Z,25.37
2024-01-14T02:10:57.113Z,19.87
2024-01-14T02:13:23.529Z,18.87
2024-01-14T02:15:49.996Z,19.97
2024-01-14T02:18:17.007Z,21.57
2024-01-14T02:20:43.545Z,20.23
2024-01-14T02:23:13.441Z,19.97
2024-01-14T02:25:39.841Z,20.23
2024-01-14T02:28:06.551Z,19.17
2024-01-14T02:30:34.760Z,16.13
2024-01-14T02:33:02.636Z,21.20
2024-01-14T02:35:29.338Z,18.07
2024-01-14T02:37:56.692Z,26.67
2024-01-14T02:40:23.153Z,19.43
2024-01-14T02:42:49.558Z,19.20
2024-01-14T02:45:16.147Z,18.87
2024-01-14T02:47:42.765Z,15.80
2024-01-14T02:50:09.645Z,13.73
2024-01-14T02:52:36.053Z,15.77
2024-01-14T02:55:02.825Z,12.23
2024-01-14T02:57:29.489Z,12.03
2024-01-14T02:59:55.974Z,13.87
2024-01-14T03:02:22.373Z,10.97
2024-01-14T03:04:49.068Z,13.40
2024-01-14T03:07:15.525Z,11.93
2024-01-14T03:09:42.208Z,13.90
2024-01-14T03:12:09.271Z,16.00
2024-01-14T03:14:35.832Z,11.53
2024-01-14T03:17:02.561Z,12.93
2024-01-14T03:19:29.067Z,8.87
2024-01-14T03:21:55.590Z,9.93
2024-01-14T03:24:22.076Z,9.67
2024-01-14T03:26:48.758Z,9.87
2024-01-14T03:29:15.343Z,12.90
2024-01-14T03:31:41.827Z,8.37
2024-01-14T03:34:08.526Z,15.03
2024-01-14T03:36:35.187Z,9.53
2024-01-14T03:39:04.873Z,12.93
2024-01-14T03:41:34.229Z,10.20
2024-01-14T03:44:01.196Z,10.03
2024-01-14T03:46:27.740Z,9.30
2024-01-14T03:48:54.316Z,12.20
2024-01-14T03:51:20.873Z,11.30
2024-01-14T03:53:48.256Z,8.40
2024-01-14T03:56:14.924Z,8.13
2024-01-14T03:58:41.685Z,9.67
2024-01-14T04:01:15.980Z,8.73
2024-01-14T04:03:42.658Z,11.57
2024-01-14T04:06:09.768Z,9.77
2024-01-14T04:08:36.429Z,9.90
2024-01-14T04:11:03.445Z,9.17
2024-01-14T04:13:29.864Z,7.63
2024-01-14T04:15:59.843Z,11.57
2024-01-14T04:18:27.872Z,8.37
2024-01-14T04:20:54.326Z,11.33
2024-01-14T04:23:20.742Z,8.87
2024-01-14T04:25:47.148Z,8.20
2024-01-14T04:28:13.585Z,7.17
2024-01-14T04:30:40.020Z,7.50
2024-01-14T04:33:06.709Z,9.17
2024-01-14T04:35:33.278Z,10.77
2024-01-14T04:38:01.470Z,9.03
2024-01-14T04:40:28.357Z,10.17
2024-01-14T04:42:54.748Z,8.03
2024-01-14T04:45:21.162Z,11.27
2024-01-14T04:47:48.207Z,7.07
2024-01-14T04:50:14.944Z,7.57
2024-01-14T04:52:41.731Z,8.77
2024-01-14T04:55:08.316Z,7.67
2024-01-14T04:57:34.762Z,6.07
2024-01-14T05:00:01.224Z,9.27
2024-01-14T05:02:28.157Z,5.67
2024-01-14T05:04:54.578Z,5.80
2024-01-14T05:07:21.008Z,6.77
2024-01-14T05:09:47.433Z,8.03
2024-01-14T05:12:13.888Z,6.00
2024-01-14T05:14:40.460Z,6.80
2024-01-14T05:17:06.943Z,9.17
2024-01-14T05:19:33.669Z,11.53
2024-01-14T05:22:00.189Z,10.10
2024-01-14T05:24:27.157Z,11.97
2024-01-14T05:26:53.660Z,9.37
2024-01-14T05:29:20.081Z,8.73
2024-01-14T05:31:46.556Z,10.37
2024-01-14T05:34:13.080Z,9.63
2024-01-14T05:36:39.718Z,6.97
2024-01-14T05:39:06.203Z,9.87
2024-01-14T05:41:33.004Z,6.17
2024-01-14T05:43:59.474Z,10.40
2024-01-14T05:46:26.278Z,10.33
2024-01-14T05:48:52.846Z,10.50
2024-01-14T05:51:19.435Z,7.80
2024-01-14T05:53:46.911Z,7.90
2024-01-14T05:56:13.697Z,10.60
2024-01-14T05:58:42.843Z,8.87
2024-01-14T06:01:09.540Z,9.93
2024-01-14T06:03:36.200Z,12.80
2024-01-14T06:06:03.539Z,14.70
2024-01-14T06:08:30.503Z,10.37
2024-01-14T06:10:56.931Z,10.00
2024-01-14T06:13:23.607Z,9.57
2024-01-14T06:15:50.019Z,6.80
2024-01-14T06:18:16.737Z,14.00
2024-01-14T06:20:44.915Z,11.73
2024-01-14T06:23:12.223Z,14.70
2024-01-14T06:25:38.991Z,16.30
2024-01-14T06:28:07.882Z,11.30
2024-01-14T06:30:35.387Z,12.80
2024-01-14T06:33:04.640Z,11.40
2024-01-14T06:35:31.181Z,13.77
2024-01-14T06:37:57.581Z,12.60
2024-01-14T06:40:31.694Z,7.43
2024-01-14T06:43:02.960Z,13.43
2024-01-14T06:45:29.581Z,12.43
2024-01-14T06:47:56.363Z,10.17
2024-01-14T06:50:22.909Z,10.67
2024-01-14T06:52:49.354Z,9.67
2024-01-14T06:55:16.265Z,12.47
2024-01-14T06:57:42.812Z,9.83
2024-01-14T07:00:10.437Z,14.47
2024-01-14T07:02:37.350Z,10.30
2024-01-14T07:05:09.518Z,12.33
2024-01-14T07:07:36.057Z,10.23
2024-01-14T07:10:02.555Z,14.57
2024-01-14T07:12:29.011Z,13.57
2024-01-14T07:14:55.570Z,10.90
2024-01-14T07:17:22.207Z,10.30
2024-01-14T07:19:48.825Z,10.73
2024-01-14T07:22:15.568Z,9.83
2024-01-14T07:24:42.220Z,12.93
2024-01-14T07:27:08.830Z,12.30
2024-01-14T07:29:35.415Z,13.43
2024-01-14T07:32:05.844Z,15.87
2024-01-14T07:34:33.111Z,16.97
2024-01-14T07:36:59.631Z,13.27
2024-01-14T07:39:26.119Z,16.63
2024-01-14T07:41:52.714Z,12.93
2024-01-14T07:44:21.826Z,10.70
2024-01-14T07:46:48.226Z,10.77
2024-01-14T07:49:15.016Z,14.00
2024-01-14T07:51:41.715Z,18.10
2024-01-14T07:54:08.348Z,17.10
2024-01-14T07:56:34.938Z,15.20
2024-01-14T07:59:02.623Z,13.00
2024-01-14T08:01:31.170Z,16.33
2024-01-14T08:03:58.074Z,8.43
2024-01-14T08:06:25.514Z,12.77
2024-01-14T08:08:52.090Z,13.40
2024-01-14T08:11:18.640Z,12.97
2024-01-14T08:13:45.184Z,16.03
2024-01-14T08:16:12.433Z,15.30
2024-01-14T08:18:39.034Z,13.47
2024-01-14T08:21:10.286Z,15.70
2024-01-14T08:23:37.706Z,15.30
2024-01-14T08:26:04.510Z,14.73
2024-01-14T08:28:33.135Z,16.30
2024-01-14T08:30:59.812Z,17.23
2024-01-14T08:33:26.618Z,20.83
2024-01-14T08:35:55.330Z,18.20
2024-01-14T08:38:22.119Z,19.13
2024-01-14T08:40:48.636Z,14.50
2024-01-14T08:43:15.329Z,12.70
2024-01-14T08:45:42.318Z,16.93
2024-01-14T08:48:09.294Z,15.37
2024-01-14T08:50:36.122Z,11.97
2024-01-14T08:53:02.569Z,12.63
2024-01-14T08:55:29.978Z,11.60
2024-01-14T08:57:56.474Z,18.30
2024-01-14T09:00:23.093Z,15.00
2024-01-14T09:02:49.586Z,12.57
2024-01-14T09:05:16.649Z,14.40
2024-01-14T09:07:43.325Z,14.50
2024-01-14T09:10:10.227Z,13.57
2024-01-14T09:12:36.902Z,12.60
2024-01-14T09:15:03.690Z,12.43
2024-01-14T09:17:30.463Z,13.07
2024-01-14T09:19:56.965Z,15.07
2024-01-14T09:22:23.534Z,17.03
2024-01-14T09:24:50.099Z,23.77
2024-01-14T09:27:18.461Z,21.93
2024-01-14T09:29:45.055Z,29.67
2024-01-14T09:32:11.740Z,25.73
2024-01-14T09:34:38.311Z,24.00
2024-01-14T09:37:04.950Z,23.43
2024-01-14T09:39:31.502Z,27.07
2024-01-14T09:42:23.538Z,29.30
2024-01-14T09:44:57.909Z,30.80
2024-01-14T09:47:26.633Z,25.87
2024-01-14T09:49:54.987Z,26.47
2024-01-14T09:52:22.779Z,27.63
2024-01-14T09:54:49.249Z,27.13
2024-01-14T09:57:19.385Z,31.07
2024-01-14T09:59:48.978Z,30.33
2024-01-14T10:02:16.192Z,27.13
2024-01-14T10:04:43.899Z,27.27
2024-01-14T10:07:12.339Z,28.07
2024-01-14T10:09:43.973Z,28.33
2024-01-14T10:12:11.155Z,26.50
2024-01-14T10:14:38.774Z,30.30
2024-01-14T10:17:05.668Z,29.03
2024-01-14T10:19:32.556Z,24.67
2024-01-14T10:22:14.444Z,25.37
2024-01-14T10:24:52.595Z,23.70
2024-01-14T10:27:34.080Z,22.27
2024-01-14T10:30:12.616Z,23.03
2024-01-14T10:33:15.964Z,24.77
2024-01-14T10:35:29.254Z,21.43
2024-01-14T10:37:56.448Z,20.33
2024-01-14T10:40:23.175Z,24.53
2024-01-14T10:42:49.613Z,21.20
2024-01-14T10:45:16.392Z,22.23
2024-01-14T10:47:48.086Z,22.73
2024-01-14T10:50:18.454Z,22.00
2024-01-14T10:52:55.183Z,21.27
2024-01-14T10:55:38.734Z,25.27
2024-01-14T10:58:06.390Z,23.80
2024-01-14T11:00:36.804Z,25.53
2024-01-14T11:03:07.170Z,27.33
2024-01-14T11:05:34.917Z,26.13
2024-01-14T11:08:02.200Z,29.80
2024-01-14T11:10:29.888Z,29.03
2024-01-14T11:13:23.377Z,31.00
2024-01-14T11:16:11.014Z,31.00
2024-01-14T11:18:46.988Z,30.80
2024-01-14T11:21:44.711Z,31.97
2024-01-14T11:24:22.558Z,29.53
2024-01-14T11:26:49.319Z,28.40
2024-01-14T11:29:15.769Z,29.30
2024-01-14T11:32:04.213Z,31.70
2024-01-14T11:34:46.037Z,33.07
2024-01-14T11:37:31.752Z,30.77
2024-01-14T11:40:07.827Z,26.87
2024-01-14T11:42:35.979Z,29.13
2024-01-14T11:45:14.516Z,28.80
2024-01-14T11:47:47.172Z,28.53
2024-01-14T11:50:15.581Z,28.23
2024-01-14T11:52:44.927Z,27.80
2024-01-14T11:55:15.759Z,26.97
2024-01-14T11:57:42.762Z,25.80
2024-01-14T12:00:09.893Z,25.73
2024-01-14T12:02:36.647Z,25.70
2024-01-14T12:05:16.582Z,25.67
2024-01-14T12:07:44.083Z,23.63
2024-01-14T12:10:14.562Z,23.20
2024-01-14T12:12:42.905Z,23.23
2024-01-14T12:15:10.700Z,23.50
2024-01-14T12:17:37.360Z,23.37
2024-01-14T12:20:06.165Z,22.23
2024-01-14T12:22:32.682Z,23.20
2024-01-14T12:25:02.014Z,24.97
2024-01-14T12:27:28.562Z,24.53
2024-01-14T12:29:56.553Z,25.63
2024-01-14T12:32:23.266Z,25.07
2024-01-14T12:34:50.456Z,28.23
2024-01-14T12:37:17.518Z,25.87
2024-01-14T12:39:44.459Z,23.73
2024-01-14T12:42:13.014Z,25.33
2024-01-14T12:44:48.155Z,22.87
2024-01-14T12:47:14.794Z,24.73
2024-01-14T12:49:44.958Z,23.60
2024-01-14T12:52:11.999Z,25.23
2024-01-14T12:54:39.109Z,23.40
2024-01-14T12:57:16.727Z,21.57
2024-01-14T12:59:49.303Z,21.63
2024-01-14T13:02:15.820Z,22.60
2024-01-14T13:04:42.463Z,22.97
2024-01-14T13:07:12.878Z,21.47
2024-01-14T13:09:41.145Z,18.73
2024-01-14T13:12:08.153Z,20.67
2024-01-14T13:14:34.943Z,22.57
2024-01-14T13:17:03.531Z,20.07
2024-01-14T13:19:30.312Z,19.13
2024-01-14T13:21:56.988Z,18.23
2024-01-14T13:24:23.436Z,17.27
2024-01-14T13:26:49.946Z,18.80
2024-01-14T13:29:16.559Z,17.23
2024-01-14T13:31:43.783Z,19.53
2024-01-14T13:34:10.866Z,17.20
2024-01-14T13:36:37.759Z,15.77
2024-01-14T13:39:05.876Z,13.83
2024-01-14T13:41:32.907Z,14.93
2024-01-14T13:44:12.019Z,14.80
2024-01-14T13:46:44.900Z,15.00
2024-01-14T13:49:11.640Z,14.67
2024-01-14T13:51:39.544Z,14.97
2024-01-14T13:54:12.486Z,15.87
2024-01-14T13:56:41.958Z,16.00
2024-01-14T13:59:12.096Z,15.30
2024-01-14T14:01:39.401Z,13.57
2024-01-14T14:04:07.009Z,15.03
2024-01-14T14:06:37.147Z,13.87
2024-01-14T14:09:04.754Z,15.30
2024-01-14T14:11:31.250Z,14.07
2024-01-14T14:13:59.935Z,23.93
2024-01-14T14:16:35.218Z,17.10
2024-01-14T14:19:07.412Z,15.13
2024-01-14T14:21:42.495Z,19.07
2024-01-14T14:24:20.155Z,15.43
2024-01-14T14:26:46.866Z,19.60
2024-01-14T14:29:13.354Z,17.07
2024-01-14T14:31:48.209Z,17.67
2024-01-14T14:34:16.845Z,15.83
2024-01-14T14:36:44.307Z,15.43
2024-01-14T14:39:11.595Z,16.37
2024-01-14T14:41:38.230Z,15.00
2024-01-14T14:44:05.703Z,18.93
2024-01-14T14:46:32.579Z,19.17
2024-01-14T14:49:00.232Z,19.67
2024-01-14T14:51:33.789Z,18.93
2024-01-14T14:54:10.133Z,19.83
2024-01-14T14:56:37.265Z,19.27
2024-01-14T14:59:03.880Z,21.37
2024-01-14T15:01:37.948Z,18.90
2024-01-14T15:04:11.564Z,23.63
2024-01-14T15:06:39.781Z,21.60
2024-01-14T15:09:08.139Z,21.63
2024-01-14T15:11:38.358Z,21.40
2024-01-14T15:14:06.377Z,23.60
2024-01-14T15:16:32.842Z,23.17
2024-01-14T15:18:59.618Z,21.97
2024-01-14T15:21:26.350Z,25.60
2024-01-14T15:23:52.862Z,28.33
2024-01-14T15:26:19.292Z,27.30
2024-01-14T15:28:46.183Z,26.37
2024-01-14T15:31:13.813Z,26.27
2024-01-14T15:33:41.698Z,28.83
2024-01-14T15:36:09.612Z,27.13
2024-01-14T15:38:36.496Z,24.97
2024-01-14T15:41:07.056Z,24.60
2024-01-14T15:43:37.672Z,28.17
2024-01-14T15:46:04.510Z,27.63
2024-01-14T15:48:31.946Z,27.47
2024-01-14T15:51:04.596Z,26.67
2024-01-14T15:53:35.802Z,26.37
2024-01-14T15:56:06.271Z,31.60
2024-01-14T15:58:33.549Z,32.00
2024-01-14T16:01:08.158Z,30.23
2024-01-14T16:03:38.503Z,30.30
2024-01-14T16:06:06.362Z,30.17
2024-01-14T16:08:32.921Z,32.83
2024-01-14T16:11:05.091Z,28.63
2024-01-14T16:13:34.161Z,32.43
2024-01-14T16:16:01.271Z,28.63
2024-01-14T16:18:27.851Z,28.57
2024-01-14T16:21:02.786Z,28.20
2024-01-14T16:23:33.555Z,26.90
2024-01-14T16:26:00.451Z,28.83
2024-01-14T16:28:27.527Z,26.63
2024-01-14T16:31:05.070Z,27.63
2024-01-14T16:33:38.534Z,26.50
2024-01-14T16:36:05.734Z,26.53
2024-01-14T16:38:32.229Z,28.80
2024-01-14T16:41:03.705Z,29.73
2024-01-14T16:43:32.434Z,31.73
2024-01-14T16:45:58.985Z,29.83
2024-01-14T16:48:25.524Z,33.27
2024-01-14T16:51:02.468Z,31.10
2024-01-14T16:53:35.445Z,32.87
2024-01-14T16:56:02.921Z,34.27
2024-01-14T16:58:29.461Z,34.73
2024-01-14T17:01:07.587Z,38.13
2024-01-14T17:03:41.572Z,34.87
2024-01-14T17:06:09.874Z,36.13
2024-01-14T17:08:38.019Z,31.07
2024-01-14T17:11:08.906Z,37.93
2024-01-14T17:13:35.317Z,37.77
2024-01-14T17:16:10.080Z,37.50
2024-01-14T17:18:40.345Z,35.67
2024-01-14T17:21:08.129Z,35.87
2024-01-14T17:23:35.180Z,38.47
2024-01-14T17:26:07.539Z,36.40
2024-01-14T17:28:40.913Z,37.20
2024-01-14T17:31:18.184Z,35.13
2024-01-14T17:33:48.091Z,38.07
2024-01-14T17:36:16.206Z,39.37
2024-01-14T17:38:44.852Z,35.33
2024-01-14T17:41:11.897Z,35.57
2024-01-14T17:43:40.228Z,34.73
2024-01-14T17:46:09.540Z,36.37
2024-01-14T17:48:42.933Z,35.13
2024-01-14T17:51:11.515Z,30.43
2024-01-14T17:53:38.798Z,35.23
2024-01-14T17:56:05.761Z,37.37
2024-01-14T17:58:32.554Z,34.33
2024-01-14T18:01:03.210Z,36.00
2024-01-14T18:03:30.323Z,33.40
2024-01-14T18:05:57.036Z,34.50
2024-01-14T18:08:23.767Z,33.43
2024-01-14T18:10:50.481Z,33.30
2024-01-14T18:13:17.646Z,33.80
2024-01-14T18:15:45.743Z,36.47
2024-01-14T18:18:13.855Z,40.60
2024-01-14T18:20:41.658Z,37.70
2024-01-14T18:23:12.824Z,36.17
2024-01-14T18:25:42.619Z,46.43
2024-01-14T18:28:09.280Z,146.27
2024-01-14T18:30:36.110Z,39.60
2024-01-14T18:33:10.214Z,39.50
2024-01-14T18:35:40.878Z,38.87
2024-01-14T18:38:08.138Z,36.37
2024-01-14T18:40:34.820Z,39.93
2024-01-14T18:43:05.648Z,37.77
2024-01-14T18:45:38.054Z,40.93
2024-01-14T18:48:07.420Z,39.00
2024-01-14T18:50:34.943Z,37.27
2024-01-14T18:53:02.421Z,34.03
2024-01-14T18:55:29.056Z,40.07
2024-01-14T18:57:55.525Z,37.63
2024-01-14T19:00:21.956Z,37.17
2024-01-14T19:02:48.749Z,37.63
2024-01-14T19:05:15.992Z,36.40
2024-01-14T19:07:42.887Z,36.23
2024-01-14T19:10:10.192Z,36.30
2024-01-14T19:12:37.498Z,34.00
2024-01-14T19:15:05.521Z,30.50
2024-01-14T19:17:33.112Z,39.00
2024-01-14T19:20:00.846Z,34.03
2024-01-14T19:22:27.899Z,34.37
2024-01-14T19:24:55.321Z,37.07
2024-01-14T19:27:22.588Z,35.67
2024-01-14T19:29:49.415Z,31.07
2024-01-14T19:32:16.039Z,28.43
2024-01-14T19:34:45.446Z,29.50
2024-01-14T19:37:12.386Z,28.30
2024-01-14T19:39:42.904Z,33.23
2024-01-14T19:42:11.432Z,29.13
2024-01-14T19:44:37.987Z,30.53
2024-01-14T19:47:04.692Z,32.27
2024-01-14T19:49:31.497Z,31.70
2024-01-14T19:51:58.216Z,31.07
2024-01-14T19:54:25.989Z,29.07
2024-01-14T19:56:53.591Z,31.93
2024-01-14T19:59:21.606Z,32.67
2024-01-14T20:01:48.625Z,30.07
2024-01-14T20:04:15.525Z,26.60
2024-01-14T20:06:43.084Z,33.97
2024-01-14T20:09:10.551Z,29.00
2024-01-14T20:11:42.062Z,30.53
2024-01-14T20:14:08.696Z,30.33
2024-01-14T20:16:35.097Z,30.53
2024-01-14T20:19:02.220Z,30.77
2024-01-14T20:21:28.701Z,30.73
2024-01-14T20:23:55.196Z,26.63
2024-01-14T20:26:22.025Z,31.47
2024-01-14T20:28:49.160Z,29.47
2024-01-14T20:31:15.898Z,28.77
2024-01-14T20:33:42.639Z,29.33
2024-01-14T20:36:09.388Z,30.00
2024-01-14T20:38:35.940Z,30.17
2024-01-14T20:41:04.214Z,31.70
2024-01-14T20:43:31.371Z,32.97
2024-01-14T20:45:57.770Z,34.00
2024-01-14T20:48:24.298Z,28.77
2024-01-14T20:50:51.782Z,28.60
2024-01-14T20:53:19.534Z,27.53
2024-01-14T20:55:46.037Z,28.33
2024-01-14T20:58:14.438Z,29.47
2024-01-14T21:00:42.002Z,29.27
2024-01-14T21:03:08.775Z,31.00
2024-01-14T21:05:35.477Z,30.70
2024-01-14T21:08:05.260Z,27.00
2024-01-14T21:10:31.927Z,28.97
2024-01-14T21:12:58.881Z,28.77
2024-01-14T21:15:26.563Z,26.57
2024-01-14T21:17:53.012Z,28.23
2024-01-14T21:20:19.556Z,33.07
2024-01-14T21:22:46.002Z,33.30
2024-01-14T21:25:12.411Z,29.40
2024-01-14T21:27:38.926Z,28.80
2024-01-14T21:30:06.022Z,28.40
2024-01-14T21:32:33.700Z,28.73
2024-01-14T21:35:00.557Z,28.00
2024-01-14T21:37:27.289Z,30.63
2024-01-14T21:39:53.758Z,25.73
2024-01-14T21:42:21.031Z,29.63
2024-01-14T21:44:47.550Z,30.77
2024-01-14T21:47:13.958Z,28.33
2024-01-14T21:49:40.707Z,29.00
2024-01-14T21:52:08.239Z,29.17
2024-01-14T21:54:34.896Z,27.40
2024-01-14T21:57:01.442Z,28.53
2024-01-14T21:59:27.857Z,30.87
2024-01-14T22:01:55.220Z,31.47
2024-01-14T22:04:21.664Z,28.90
2024-01-14T22:06:48.211Z,29.63
2024-01-14T22:09:14.810Z,31.17
2024-01-14T22:11:41.597Z,26.83
2024-01-14T22:14:08.073Z,29.20
2024-01-14T22:16:35.066Z,29.73
2024-01-14T22:19:02.163Z,30.17
2024-01-14T22:21:33.313Z,29.70
2024-01-14T22:24:00.046Z,31.13
2024-01-14T22:26:26.437Z,31.37
2024-01-14T22:28:55.977Z,34.67
2024-01-14T22:31:23.146Z,28.90
2024-01-14T22:33:49.858Z,26.67
2024-01-14T22:36:18.021Z,28.93
2024-01-14T22:38:45.317Z,34.03
2024-01-14T22:41:13.018Z,30.30
2024-01-14T22:43:40.764Z,32.57
2024-01-14T22:46:07.331Z,31.93
2024-01-14T22:48:34.099Z,31.23
2024-01-14T22:51:02.878Z,28.70
2024-01-14T22:53:29.471Z,30.53
2024-01-14T22:55:55.903Z,31.73
2024-01-14T22:58:22.451Z,31.33
2024-01-14T23:00:49.006Z,31.80
2024-01-14T23:03:16.292Z,29.57
2024-01-14T23:05:42.980Z,31.27
2024-01-14T23:08:09.582Z,31.70
2024-01-14T23:10:36.158Z,29.43
2024-01-14T23:13:02.995Z,28.80
2024-01-14T23:15:29.487Z,27.93
2024-01-14T23:17:56.084Z,30.67
2024-01-14T23:20:22.547Z,29.47
2024-01-14T23:22:48.973Z,30.23
2024-01-14T23:25:15.412Z,29.77
2024-01-14T23:27:45.309Z,30.97
2024-01-14T23:30:13.332Z,26.93
2024-01-14T23:32:40.309Z,25.37
2024-01-14T23:35:07.601Z,29.77
2024-01-14T23:37:34.244Z,28.10
2024-01-14T23:40:01.025Z,26.53
2024-01-14T23:42:28.405Z,28.30
2024-01-14T23:44:54.854Z,24.90
2024-01-14T23:47:21.679Z,23.13
2024-01-14T23:49:48.288Z,23.50
2024-01-14T23:52:15.029Z,24.43
2024-01-14T23:54:41.817Z,22.30
2024-01-14T23:57:08.337Z,25.67
2024-01-14T23:59:34.763Z,21.90
